Time;durP1;ratioP1;P1;durP2;ratioP2;P2;SDS_P1;SDS_P2;PMS_P1;PMS_P2;Temp;Humidity;BMP_temperature;BMP_pressure;BME280_temperature;BME280_humidity;BME280_pressure;Samples;Min_cycle;Max_cycle;Signal;HPM_P1;HPM_P2
2022/04/03 00:01:09;;;;;;;1.10;0.73;;;15.50;35.80;14.70;101809.00;;;;5051846;28;20550;-70
2022/04/03 00:03:55;;;;;;;1.70;1.08;;;15.50;35.80;14.70;101810.00;;;;5059527;28;20056;-70
2022/04/03 00:06:41;;;;;;;1.10;0.93;;;15.50;35.80;14.70;101819.00;;;;5044008;28;20044;-70
2022/04/03 00:09:27;;;;;;;2.35;1.20;;;15.50;35.80;14.70;101816.00;;;;5058457;28;20040;-70
2022/04/03 00:12:13;;;;;;;2.13;1.00;;;15.50;35.80;14.70;101813.00;;;;5056274;28;20033;-70
2022/04/03 00:14:59;;;;;;;0.95;0.93;;;15.50;35.80;14.70;101811.00;;;;5036091;28;20041;-70
2022/04/03 00:17:45;;;;;;;1.92;0.80;;;15.50;35.90;14.60;101809.00;;;;5059388;28;20513;-70
2022/04/03 00:20:32;;;;;;;1.48;1.00;;;15.40;36.50;14.60;101815.00;;;;5065428;28;20420;-70
2022/04/03 00:23:18;;;;;;;0.93;0.85;;;15.40;35.80;14.60;101813.00;;;;5055159;28;20036;-70
2022/04/03 00:26:04;;;;;;;1.55;0.93;;;15.40;35.80;14.60;101807.00;;;;5046348;28;20049;-70
2022/04/03 00:28:50;;;;;;;1.35;1.00;;;15.40;35.90;14.60;101815.00;;;;5059850;28;20562;-70
2022/04/03 00:31:36;;;;;;;1.73;1.13;;;15.40;35.90;14.60;101808.00;;;;5059532;28;20044;-70
2022/04/03 00:34:23;;;;;;;1.50;1.02;;;15.40;35.90;14.60;101814.00;;;;5046756;28;20041;-70
2022/04/03 00:37:09;;;;;;;1.90;1.30;;;15.40;35.90;14.60;101815.00;;;;5061497;28;20037;-70
2022/04/03 00:39:55;;;;;;;2.08;0.90;;;15.40;35.90;14.60;101808.00;;;;5064967;28;20040;-70
2022/04/03 00:42:41;;;;;;;1.25;1.00;;;15.40;35.90;14.50;101811.00;;;;5041772;28;20036;-70
2022/04/03 00:45:27;;;;;;;3.28;1.10;;;15.30;35.90;14.50;101814.00;;;;5046059;28;20040;-70
2022/04/03 00:48:13;;;;;;;1.50;0.85;;;15.30;35.90;14.50;101808.00;;;;5058161;28;20045;-70
2022/04/03 00:50:59;;;;;;;1.75;1.20;;;15.30;35.90;14.50;101808.00;;;;5047870;28;20079;-70
2022/04/03 00:53:45;;;;;;;1.70;1.38;;;15.30;35.90;14.50;101805.00;;;;5066889;28;20519;-70
2022/04/03 00:56:32;;;;;;;1.48;1.30;;;15.30;35.90;14.50;101807.00;;;;5061580;28;20453;-70
2022/04/03 00:59:18;;;;;;;1.50;1.20;;;15.30;35.90;14.50;101799.00;;;;5032671;28;20068;-70
2022/04/03 01:02:04;;;;;;;2.08;1.20;;;15.30;35.90;14.50;101806.00;;;;5057743;28;20049;-70
2022/04/03 01:04:50;;;;;;;2.35;1.20;;;15.30;36.60;14.50;101802.00;;;;5061047;28;20048;-70
2022/04/03 01:07:36;;;;;;;2.10;1.60;;;15.30;35.90;14.50;101805.00;;;;5041863;28;20043;-70
2022/04/03 01:10:22;;;;;;;2.55;1.63;;;15.30;36.00;14.50;101799.00;;;;5051338;28;20076;-70
2022/04/03 01:13:10;;;;;;;2.80;1.00;;;15.30;36.00;14.50;101803.00;;;;5054918;28;20029;-70
2022/04/03 01:15:59;;;;;;;1.70;1.20;;;15.20;35.90;14.40;101798.00;;;;5044457;28;20087;-70
2022/04/03 01:18:45;;;;;;;2.80;1.60;;;15.30;36.00;14.50;101802.00;;;;5061479;28;20420;-70
2022/04/03 01:21:31;;;;;;;2.00;1.40;;;15.30;36.00;14.40;101807.00;;;;5046853;28;20498;-70
2022/04/03 01:24:22;;;;;;;1.90;1.40;;;15.30;36.00;14.50;101802.00;;;;5054993;28;20044;-70
2022/04/03 01:27:11;;;;;;;2.50;1.45;;;15.20;35.90;14.40;101806.00;;;;5053606;28;20046;-70
2022/04/03 01:29:57;;;;;;;2.90;1.45;;;15.20;35.90;14.40;101812.00;;;;5058560;28;20479;-70
2022/04/03 01:32:43;;;;;;;1.40;1.20;;;15.20;35.90;14.40;101807.00;;;;5044929;28;20497;-70
2022/04/03 01:35:29;;;;;;;2.97;1.70;;;15.20;35.90;14.40;101798.00;;;;5044464;28;20474;-70
2022/04/03 01:38:16;;;;;;;1.92;1.20;;;15.20;35.90;14.40;101804.00;;;;5059195;28;20048;-70
2022/04/03 01:41:02;;;;;;;1.25;1.10;;;15.30;36.00;14.40;101800.00;;;;5037170;28;20106;-70
2022/04/03 01:43:48;;;;;;;1.65;1.33;;;15.20;35.90;14.40;101800.00;;;;5057817;28;20041;-70
2022/04/03 01:46:35;;;;;;;2.17;1.50;;;15.20;36.00;14.40;101798.00;;;;5055608;28;20047;-70
2022/04/03 01:49:21;;;;;;;2.58;1.23;;;15.20;36.00;14.40;101787.00;;;;5060512;27;20033;-70
2022/04/03 01:52:08;;;;;;;1.58;1.38;;;15.20;36.00;14.40;101787.00;;;;5062190;28;20052;-70
2022/04/03 01:54:54;;;;;;;2.50;1.50;;;15.20;36.00;14.30;101791.00;;;;5052529;28;20116;-70
2022/04/03 01:57:40;;;;;;;2.25;1.40;;;15.20;36.70;14.30;101789.00;;;;5054499;28;20032;-70
2022/04/03 02:00:26;;;;;;;1.73;1.27;;;15.20;36.00;14.30;101783.00;;;;5057857;28;20122;-70
2022/04/03 02:03:12;;;;;;;2.17;1.30;;;15.10;36.00;14.30;101784.00;;;;5038964;28;20466;-70
2022/04/03 02:05:59;;;;;;;3.75;1.38;;;15.20;36.00;14.30;101788.00;;;;5050300;28;20040;-70
2022/04/03 02:08:45;;;;;;;3.42;1.73;;;15.20;36.10;14.30;101786.00;;;;5057468;28;20509;-70
2022/04/03 02:11:31;;;;;;;3.55;1.67;;;15.10;36.00;14.30;101796.00;;;;5061886;28;20047;-70
2022/04/03 02:14:17;;;;;;;1.67;1.50;;;15.10;36.00;14.30;101783.00;;;;5052678;28;20044;-70
2022/04/03 02:17:03;;;;;;;2.03;1.40;;;15.10;36.00;14.30;101783.00;;;;5060887;28;20057;-70
2022/04/03 02:19:49;;;;;;;2.55;1.50;;;15.10;36.00;14.30;101780.00;;;;5054197;28;20044;-70
2022/04/03 02:22:36;;;;;;;2.90;1.55;;;15.10;36.00;14.30;101793.00;;;;5053085;28;20044;-70
2022/04/03 02:25:22;;;;;;;1.77;1.35;;;15.10;36.00;14.30;101783.00;;;;5049533;28;20409;-70
2022/04/03 02:28:12;;;;;;;1.65;1.38;;;15.10;36.00;14.30;101784.00;;;;5060830;28;20074;-70
2022/04/03 02:30:58;;;;;;;2.78;1.73;;;15.10;36.00;14.30;101781.00;;;;5039570;28;20049;-70
2022/04/03 02:33:44;;;;;;;2.72;1.67;;;15.10;36.00;14.30;101787.00;;;;5063646;28;20040;-70
2022/04/03 02:36:30;;;;;;;2.28;1.30;;;15.10;36.00;14.30;101781.00;;;;5041921;28;20049;-70
2022/04/03 02:39:16;;;;;;;3.05;1.70;;;15.10;36.10;14.30;101780.00;;;;5064884;28;20041;-70
2022/04/03 02:42:04;;;;;;;2.20;1.58;;;15.20;36.10;14.30;101782.00;;;;5069995;28;20040;-70
2022/04/03 02:44:51;;;;;;;2.70;1.50;;;15.10;36.00;14.20;101782.00;;;;5060871;28;20124;-70
2022/04/03 02:47:37;;;;;;;2.95;1.55;;;15.00;36.00;14.20;101779.00;;;;5060443;28;20043;-70
2022/04/03 02:50:25;;;;;;;1.88;1.42;;;15.10;36.10;14.20;101786.00;;;;5062126;28;20036;-70
2022/04/03 02:53:11;;;;;;;3.53;1.60;;;15.00;36.00;14.20;101798.00;;;;5052886;28;20528;-70
2022/04/03 02:55:57;;;;;;;1.30;1.05;;;15.00;36.00;14.20;101791.00;;;;5057568;28;20029;-70
2022/04/03 02:58:43;;;;;;;2.15;1.30;;;15.10;36.10;14.20;101785.00;;;;5042905;28;20046;-70
2022/04/03 03:01:29;;;;;;;2.72;1.70;;;15.00;36.00;14.20;101798.00;;;;5041897;28;20047;-70
2022/04/03 03:04:15;;;;;;;1.75;1.60;;;15.00;36.00;14.20;101786.00;;;;5042509;28;20071;-70
2022/04/03 03:07:05;;;;;;;2.47;1.42;;;15.00;36.00;14.20;101790.00;;;;5063572;28;20072;-70
2022/04/03 03:09:52;;;;;;;2.13;1.40;;;15.00;36.00;14.20;101792.00;;;;5064895;28;20485;-70
2022/04/03 03:12:38;;;;;;;1.40;1.30;;;15.00;36.10;14.20;101795.00;;;;5060906;28;20041;-70
2022/04/03 03:15:24;;;;;;;3.03;1.45;;;15.00;36.10;14.20;101784.00;;;;5053658;28;20621;-70
2022/04/03 03:18:10;;;;;;;2.22;1.38;;;15.00;36.10;14.20;101789.00;;;;5055853;28;20140;-70
2022/04/03 03:20:57;;;;;;;2.22;1.30;;;15.00;36.10;14.20;101789.00;;;;5057328;28;20036;-70
2022/04/03 03:23:43;;;;;;;1.42;1.30;;;15.00;36.10;14.20;101782.00;;;;5050945;28;20053;-70
2022/04/03 03:26:30;;;;;;;2.15;1.00;;;15.00;36.10;14.20;101786.00;;;;5061425;28;20065;-70
2022/04/03 03:29:16;;;;;;;1.88;1.58;;;15.00;36.10;14.10;101786.00;;;;5057527;28;20579;-70
2022/04/03 03:32:02;;;;;;;1.85;1.38;;;15.00;36.10;14.10;101788.00;;;;5061881;28;20055;-70
2022/04/03 03:34:48;;;;;;;2.00;1.55;;;15.00;36.10;14.10;101793.00;;;;5058063;28;20060;-70
2022/04/03 03:37:34;;;;;;;1.13;1.02;;;15.00;36.10;14.10;101792.00;;;;5058548;28;20393;-70
2022/04/03 03:40:20;;;;;;;2.00;1.27;;;14.90;36.10;14.10;101777.00;;;;5067092;28;20356;-70
2022/04/03 03:43:09;;;;;;;3.55;1.60;;;15.00;36.10;14.10;101781.00;;;;5043870;28;20048;-70
2022/04/03 03:45:56;;;;;;;1.80;1.30;;;14.90;36.10;14.10;101781.00;;;;5062250;28;20049;-70
2022/04/03 03:48:42;;;;;;;2.15;1.23;;;14.90;36.10;14.10;101775.00;;;;5061537;28;20039;-70
2022/04/03 03:51:29;;;;;;;1.60;1.50;;;14.90;36.10;14.10;101780.00;;;;5063944;28;20040;-70
2022/04/03 03:54:15;;;;;;;1.98;1.67;;;15.00;36.10;14.10;101786.00;;;;5049929;28;20040;-70
2022/04/03 03:57:01;;;;;;;1.75;1.20;;;14.90;36.10;14.10;101777.00;;;;5058962;28;20044;-70
2022/04/03 03:59:47;;;;;;;2.05;1.63;;;14.90;36.10;14.10;101791.00;;;;5056794;28;20071;-70
2022/04/03 04:02:33;;;;;;;2.28;1.10;;;14.90;36.10;14.10;101791.00;;;;5058457;28;20048;-70
2022/04/03 04:05:19;;;;;;;1.70;1.23;;;14.90;36.10;14.10;101784.00;;;;5056518;28;20048;-70
2022/04/03 04:08:05;;;;;;;2.90;1.70;;;14.90;36.10;14.10;101787.00;;;;5062201;28;20048;-70
2022/04/03 04:10:51;;;;;;;2.22;1.45;;;14.90;36.10;14.00;101787.00;;;;5063334;28;20388;-70
2022/04/03 04:13:38;;;;;;;1.58;1.23;;;14.90;36.10;14.00;101785.00;;;;5047681;28;20072;-70
2022/04/03 04:16:24;;;;;;;3.22;1.38;;;14.90;36.10;14.00;101783.00;;;;5060988;28;20068;-70
2022/04/03 04:19:10;;;;;;;1.80;1.40;;;14.90;36.10;14.00;101788.00;;;;5056639;28;20056;-70
2022/04/03 04:21:56;;;;;;;2.90;1.73;;;14.90;36.10;14.00;101782.00;;;;5060762;28;20044;-70
2022/04/03 04:24:43;;;;;;;2.25;1.65;;;14.80;36.00;14.00;101783.00;;;;5055184;28;20098;-70
2022/04/03 04:27:29;;;;;;;1.92;1.50;;;14.80;36.00;14.00;101767.00;;;;5060521;28;20494;-70
2022/04/03 04:30:15;;;;;;;2.20;1.33;;;14.90;36.00;14.00;101779.00;;;;5060560;28;20047;-70
2022/04/03 04:33:02;;;;;;;2.17;1.40;;;14.90;36.00;14.00;101772.00;;;;5030851;28;20036;-70
2022/04/03 04:35:48;;;;;;;2.47;1.48;;;14.90;36.00;14.00;101774.00;;;;5062156;28;20041;-70
2022/04/03 04:38:34;;;;;;;2.95;1.35;;;14.80;35.90;14.00;101779.00;;;;5044130;28;20048;-71
2022/04/03 04:41:20;;;;;;;2.17;1.25;;;14.80;35.90;14.00;101784.00;;;;5060508;28;20049;-70
2022/04/03 04:44:06;;;;;;;3.47;1.75;;;14.80;35.90;14.00;101788.00;;;;5053771;28;20048;-70
2022/04/03 04:46:53;;;;;;;2.33;1.40;;;14.80;35.90;14.00;101787.00;;;;5060664;28;20049;-70
2022/04/03 04:49:39;;;;;;;2.90;1.55;;;14.90;36.00;14.00;101795.00;;;;5063791;28;20040;-70
2022/04/03 04:52:25;;;;;;;1.52;1.15;;;14.90;36.00;14.00;101800.00;;;;5058151;28;20029;-70
2022/04/03 04:55:11;;;;;;;1.90;1.50;;;14.80;35.90;14.00;101796.00;;;;5053736;28;20417;-70
2022/04/03 04:57:57;;;;;;;1.48;1.10;;;14.80;35.90;14.00;101808.00;;;;5054788;28;20063;-70
2022/04/03 05:00:43;;;;;;;2.05;1.30;;;14.80;35.90;14.00;101812.00;;;;5055720;28;20422;-70
2022/04/03 05:03:30;;;;;;;1.63;1.33;;;14.80;35.90;14.00;101804.00;;;;5059672;28;20041;-70
2022/04/03 05:06:16;;;;;;;1.40;1.20;;;14.80;35.90;14.00;101803.00;;;;5053469;28;20505;-70
2022/04/03 05:09:05;;;;;;;2.15;1.20;;;14.80;35.90;13.90;101801.00;;;;5058273;28;20388;-70
2022/04/03 05:11:51;;;;;;;1.70;1.20;;;14.80;35.90;13.90;101803.00;;;;5042436;28;20037;-70
2022/04/03 05:14:37;;;;;;;2.85;1.52;;;14.80;35.90;13.90;101801.00;;;;5055668;28;20450;-70
2022/04/03 05:17:23;;;;;;;2.17;1.30;;;14.80;35.90;13.90;101809.00;;;;5043113;28;20032;-70
2022/04/03 05:20:11;;;;;;;2.20;1.30;;;14.80;35.90;13.90;101813.00;;;;5045666;28;20044;-70
2022/04/03 05:22:58;;;;;;;1.80;1.23;;;14.80;36.60;13.90;101808.00;;;;5054233;28;20407;-70
2022/04/03 05:25:44;;;;;;;2.40;1.48;;;14.80;36.00;13.90;101815.00;;;;5056224;28;20498;-70
2022/04/03 05:28:30;;;;;;;1.95;1.50;;;14.80;35.90;13.90;101815.00;;;;5049794;28;20409;-70
2022/04/03 05:31:17;;;;;;;2.65;1.10;;;14.80;35.90;13.90;101812.00;;;;5054562;28;20037;-70
2022/04/03 05:34:04;;;;;;;2.45;1.30;;;14.70;35.90;13.90;101810.00;;;;5060976;28;20040;-70
2022/04/03 05:36:50;;;;;;;1.52;1.17;;;14.80;35.90;13.90;101805.00;;;;5056048;28;20450;-70
2022/04/03 05:39:36;;;;;;;2.17;1.45;;;14.70;35.80;13.90;101817.00;;;;5062586;28;20036;-70
2022/04/03 05:42:22;;;;;;;2.55;1.48;;;14.70;35.90;13.90;101817.00;;;;5057277;28;20489;-70
2022/04/03 05:45:09;;;;;;;2.67;1.23;;;14.70;35.90;13.90;101818.00;;;;5042720;28;20044;-70
2022/04/03 05:47:55;;;;;;;2.78;1.20;;;14.70;35.90;13.90;101818.00;;;;5054980;28;20044;-70
2022/04/03 05:50:41;;;;;;;1.77;1.02;;;14.70;35.90;13.90;101823.00;;;;5056079;28;20110;-70
2022/04/03 05:53:29;;;;;;;2.40;1.30;;;14.70;35.90;13.90;101814.00;;;;5057534;28;20044;-70
2022/04/03 05:56:15;;;;;;;1.35;1.20;;;14.70;35.90;13.90;101824.00;;;;5058557;28;20375;-70
2022/04/03 05:59:01;;;;;;;2.50;1.40;;;14.70;35.90;13.90;101823.00;;;;5051359;28;20041;-70
2022/04/03 06:01:48;;;;;;;1.95;1.17;;;14.70;35.90;13.90;101823.00;;;;5054774;28;20048;-70
2022/04/03 06:04:34;;;;;;;1.75;1.27;;;14.70;35.90;13.90;101829.00;;;;5034674;28;20060;-70
2022/04/03 06:07:20;;;;;;;1.35;1.15;;;14.70;35.90;13.90;101825.00;;;;5044292;28;20051;-70
2022/04/03 06:10:06;;;;;;;1.75;1.52;;;14.70;35.90;13.90;101824.00;;;;5055600;28;20033;-70
2022/04/03 06:12:57;;;;;;;1.92;1.20;;;14.70;35.90;13.80;101823.00;;;;5056038;28;20072;-70
2022/04/03 06:15:45;;;;;;;1.27;1.17;;;14.80;36.00;13.80;101820.00;;;;5055731;28;20443;-70
2022/04/03 06:18:31;;;;;;;;;;;14.70;35.90;13.80;101824.00;;;;5063708;28;20179;-70
2022/04/03 06:21:17;;;;;;;2.10;1.30;;;14.70;36.00;13.80;101817.00;;;;5057757;28;19916;-70
2022/04/03 06:24:03;;;;;;;2.45;1.33;;;14.70;35.90;13.80;101832.00;;;;5052236;28;20052;-70
2022/04/03 06:26:49;;;;;;;3.30;1.52;;;14.70;35.90;13.80;101823.00;;;;5060526;28;20325;-70
2022/04/03 06:29:35;;;;;;;2.90;1.13;;;14.70;35.90;13.80;101825.00;;;;5056644;28;20417;-70
2022/04/03 06:32:21;;;;;;;1.40;1.10;;;14.70;35.90;13.80;101827.00;;;;5045854;28;20033;-70
2022/04/03 06:35:08;;;;;;;2.25;1.42;;;14.70;36.70;13.90;101827.00;;;;5059426;28;20522;-70
2022/04/03 06:37:54;;;;;;;1.52;1.13;;;14.70;35.90;13.90;101829.00;;;;5043184;28;20131;-70
2022/04/03 06:40:48;;;;;;;1.55;1.25;;;14.70;35.90;13.90;101830.00;;;;5039414;28;20037;-70
2022/04/03 06:43:34;;;;;;;2.60;1.23;;;14.70;35.90;13.90;101830.00;;;;5053461;28;20045;-70
2022/04/03 06:46:20;;;;;;;3.08;1.30;;;14.70;35.90;13.90;101832.00;;;;5041649;28;20466;-70
2022/04/03 06:49:07;;;;;;;1.65;1.10;;;14.70;35.90;13.90;101828.00;;;;5053896;28;20028;-70
2022/04/03 06:51:53;;;;;;;1.25;1.05;;;14.70;35.90;13.90;101835.00;;;;5039226;28;20265;-70
2022/04/03 06:54:39;;;;;;;1.60;1.50;;;14.80;36.00;13.90;101823.00;;;;5044705;28;20413;-70
2022/04/03 06:57:25;;;;;;;2.38;1.50;;;14.70;35.90;13.90;101826.00;;;;5057528;28;20045;-70
2022/04/03 07:00:13;;;;;;;3.78;1.55;;;14.80;36.00;13.90;101823.00;;;;5039187;28;20431;-70
2022/04/03 07:02:59;;;;;;;1.88;0.90;;;14.80;36.60;13.90;101819.00;;;;5055925;28;20495;-70
2022/04/03 07:05:45;;;;;;;2.83;1.20;;;14.80;35.90;13.90;101827.00;;;;5057939;28;20102;-70
2022/04/03 07:08:31;;;;;;;1.77;1.30;;;14.80;35.90;13.90;101839.00;;;;5061686;28;20135;-70
2022/04/03 07:11:18;;;;;;;1.80;1.10;;;14.80;35.80;13.90;101835.00;;;;5061618;28;20112;-70
2022/04/03 07:14:04;;;;;;;2.58;1.52;;;14.80;35.80;13.90;101831.00;;;;5061443;28;20461;-70
2022/04/03 07:16:50;;;;;;;1.67;1.02;;;14.80;35.90;13.90;101829.00;;;;5066476;28;20047;-70
2022/04/03 07:19:36;;;;;;;2.53;1.67;;;14.80;35.80;13.90;101835.00;;;;5062947;28;20029;-70
2022/04/03 07:22:22;;;;;;;3.10;1.40;;;14.80;35.80;13.90;101839.00;;;;5062919;28;20036;-70
2022/04/03 07:25:10;;;;;;;18.55;3.72;;;14.80;35.80;13.90;101835.00;;;;5052242;28;20045;-70
2022/04/03 07:27:56;;;;;;;4.88;2.35;;;14.80;36.00;14.00;101848.00;;;;5064891;28;20040;-72
2022/04/03 07:30:42;;;;;;;7.82;1.50;;;14.80;36.10;14.00;101843.00;;;;5063124;28;20036;-70
2022/04/03 07:33:28;;;;;;;4.57;1.20;;;14.80;36.10;14.00;101850.00;;;;5063803;28;20072;-70
2022/04/03 07:36:15;;;;;;;3.90;1.48;;;14.80;36.00;14.00;101842.00;;;;5062440;28;20067;-70
2022/04/03 07:39:01;;;;;;;11.00;1.50;;;14.90;36.10;14.00;101841.00;;;;5059905;28;20037;-70
2022/04/03 07:41:47;;;;;;;12.43;2.00;;;14.90;36.10;14.00;101840.00;;;;5052002;28;20133;-70
2022/04/03 07:44:33;;;;;;;21.00;2.70;;;14.90;36.20;14.00;101852.00;;;;5065221;28;20033;-70
2022/04/03 07:47:19;;;;;;;16.40;2.13;;;14.90;36.30;14.00;101847.00;;;;5062653;28;20047;-70
2022/04/03 07:50:06;;;;;;;16.15;2.70;;;14.90;36.50;14.10;101854.00;;;;5062442;28;20228;-70
2022/04/03 07:52:52;;;;;;;27.67;2.42;;;14.90;36.40;14.10;101838.00;;;;5061640;28;20071;-70
2022/04/03 07:55:38;;;;;;;24.15;4.43;;;14.90;36.50;14.10;101845.00;;;;5062468;28;20051;-71
2022/04/03 07:58:24;;;;;;;17.77;2.10;;;15.00;36.60;14.10;101853.00;;;;5063951;28;20535;-70
2022/04/03 08:01:10;;;;;;;15.55;2.40;;;15.00;36.50;14.10;101873.00;;;;5066578;28;20040;-70
2022/04/03 08:03:56;;;;;;;18.08;1.88;;;15.00;36.40;14.10;101876.00;;;;5066517;28;20051;-70
2022/04/03 08:06:43;;;;;;;13.45;1.70;;;14.90;36.40;14.10;101879.00;;;;5065320;28;20040;-70
2022/04/03 08:09:29;;;;;;;10.05;1.35;;;15.00;36.40;14.10;101870.00;;;;5049614;28;20040;-71
2022/04/03 08:12:15;;;;;;;8.73;1.52;;;15.00;36.40;14.10;101879.00;;;;5062934;28;20043;-70
2022/04/03 08:15:04;;;;;;;8.40;1.60;;;15.00;36.40;14.10;101870.00;;;;5068776;28;20437;-70
2022/04/03 08:17:50;;;;;;;11.95;1.70;;;15.00;36.50;14.10;101861.00;;;;5051418;28;20043;-70
2022/04/03 08:20:36;;;;;;;8.07;1.55;;;15.00;36.50;14.10;101861.00;;;;5079063;28;20055;-70
2022/04/03 08:23:22;;;;;;;13.25;1.60;;;15.00;36.60;14.10;101874.00;;;;5080903;28;20032;-70
2022/04/03 08:26:09;;;;;;;5.32;1.35;;;15.00;36.60;14.10;101871.00;;;;5084387;28;20054;-71
2022/04/03 08:28:55;;;;;;;8.80;1.52;;;15.00;36.60;14.10;101863.00;;;;5062899;28;20041;-71
2022/04/03 08:31:41;;;;;;;7.40;1.42;;;15.00;36.60;14.00;101861.00;;;;5042622;28;20327;-73
2022/04/03 08:34:27;;;;;;;3.85;1.20;;;15.00;36.70;14.10;101871.00;;;;5046344;28;20041;-72
2022/04/03 08:37:14;;;;;;;4.35;1.73;;;15.00;36.80;14.00;101870.00;;;;5048061;28;20175;-72
2022/04/03 08:40:00;;;;;;;1.83;0.88;;;15.00;36.80;14.00;101863.00;;;;5061285;28;20051;-72
2022/04/03 08:42:46;;;;;;;5.70;2.03;;;15.00;36.90;14.00;101864.00;;;;5065954;28;20711;-72
2022/04/03 08:45:32;;;;;;;4.07;1.20;;;15.00;37.00;14.00;101863.00;;;;5055467;28;20090;-71
2022/04/03 08:48:19;;;;;;;2.70;1.08;;;15.00;37.10;14.00;101865.00;;;;5063613;28;20398;-71
2022/04/03 08:51:05;;;;;;;3.95;1.17;;;14.90;37.00;14.00;101864.00;;;;5050605;28;20033;-71
2022/04/03 08:53:51;;;;;;;3.60;1.13;;;14.90;37.80;14.00;101865.00;;;;5062383;28;20045;-72
2022/04/03 08:56:38;;;;;;;1.98;0.95;;;14.90;37.20;13.90;101870.00;;;;5050514;28;20106;-71
2022/04/03 08:59:24;;;;;;;1.95;0.75;;;14.90;37.30;13.80;101871.00;;;;5068490;28;20144;-72
2022/04/03 09:02:13;;;;;;;2.35;0.80;;;14.90;37.30;13.70;101863.00;;;;5064941;28;20040;-72
2022/04/03 09:04:59;;;;;;;1.45;0.70;;;14.80;37.40;13.70;101865.00;;;;5045016;28;20044;-71
2022/04/03 09:08:06;;;;;;;1.85;0.77;;;14.80;37.50;13.70;101870.00;;;;5066803;28;20043;-71
2022/04/03 09:11:03;;;;;;;1.00;0.70;;;14.70;37.70;13.70;101862.00;;;;5064099;28;20037;-70
2022/04/03 09:13:49;;;;;;;2.47;0.80;;;14.70;37.80;13.70;101854.00;;;;5047145;28;20067;-71
2022/04/03 09:16:40;;;;;;;1.45;0.70;;;14.70;37.80;13.80;101851.00;;;;5062394;28;20306;-71
2022/04/03 09:19:33;;;;;;;0.60;0.60;;;14.60;37.90;13.80;101856.00;;;;5064609;28;20452;-71
2022/04/03 09:22:28;;;;;;;1.52;0.75;;;14.60;38.00;13.80;101854.00;;;;5064709;28;20448;-70
2022/04/03 09:25:16;;;;;;;1.80;0.82;;;14.60;38.00;13.80;101856.00;;;;5058677;28;20458;-70
2022/04/03 09:28:07;;;;;;;0.93;0.63;;;14.70;38.10;13.80;101861.00;;;;5064230;28;20040;-71
2022/04/03 09:30:54;;;;;;;3.20;0.70;;;14.70;38.10;13.90;101852.00;;;;5064058;28;20047;-71
2022/04/03 09:33:41;;;;;;;1.38;0.52;;;14.70;38.10;13.90;101851.00;;;;5059426;28;20047;-73
2022/04/03 09:36:32;;;;;;;3.47;0.80;;;14.70;38.20;13.90;101838.00;;;;5052416;28;20037;-71
2022/04/03 09:39:24;;;;;;;0.90;0.55;;;14.70;38.20;13.90;101844.00;;;;5065455;28;20044;-71
2022/04/03 09:42:11;;;;;;;1.65;0.77;;;14.70;38.20;13.90;101837.00;;;;5063496;28;20158;-71
2022/04/03 09:44:57;;;;;;;0.77;0.53;;;14.70;38.20;13.90;101836.00;;;;5062130;28;20048;-71
2022/04/03 09:47:43;;;;;;;2.63;0.60;;;14.80;38.30;13.90;101834.00;;;;5063775;28;20516;-70
2022/04/03 09:50:29;;;;;;;1.80;0.60;;;14.80;38.30;13.90;101848.00;;;;5063775;28;20086;-71
2022/04/03 09:53:17;;;;;;;1.48;0.70;;;14.80;38.30;13.90;101840.00;;;;5048075;28;20040;-70
2022/04/03 09:56:03;;;;;;;0.95;0.60;;;14.80;38.30;13.90;101839.00;;;;5062351;28;20041;-71
2022/04/03 09:58:49;;;;;;;2.10;0.47;;;14.80;38.30;13.90;101825.00;;;;5063450;28;20040;-71
2022/04/03 10:01:40;;;;;;;1.08;0.50;;;14.80;38.40;13.90;101828.00;;;;5063822;28;20080;-71
2022/04/03 10:04:26;;;;;;;2.05;0.60;;;14.80;38.40;14.00;101823.00;;;;5041197;28;20045;-71
2022/04/03 10:07:13;;;;;;;2.13;0.50;;;14.80;38.40;14.00;101824.00;;;;5019223;28;20036;-71
2022/04/03 10:09:59;;;;;;;1.83;0.52;;;14.80;38.50;14.00;101817.00;;;;5032910;28;20499;-71
2022/04/03 10:12:45;;;;;;;1.08;0.60;;;14.90;38.60;14.00;101808.00;;;;5046522;28;20048;-70
2022/04/03 10:15:32;;;;;;;1.20;0.60;;;14.90;38.60;14.00;101802.00;;;;5061260;28;20032;-71
2022/04/03 10:18:18;;;;;;;1.25;0.45;;;14.90;38.60;14.00;101807.00;;;;5061811;28;20051;-71
2022/04/03 10:21:05;;;;;;;2.63;0.60;;;14.90;38.60;14.00;101801.00;;;;5064146;28;20036;-71
2022/04/03 10:23:54;;;;;;;0.90;0.55;;;14.90;38.60;14.00;101797.00;;;;5046405;28;20036;-71
2022/04/03 10:26:41;;;;;;;0.90;0.52;;;14.90;38.60;14.00;101804.00;;;;5031252;28;20248;-71
2022/04/03 10:29:36;;;;;;;1.83;0.68;;;14.90;38.60;14.00;101799.00;;;;5071211;28;20083;-71
2022/04/03 10:32:28;;;;;;;0.55;0.45;;;14.90;38.70;14.10;101806.00;;;;5063026;28;20044;-71
2022/04/03 10:35:14;;;;;;;0.88;0.68;;;14.90;38.60;14.10;101791.00;;;;5058854;28;20032;-71
2022/04/03 10:38:04;;;;;;;1.10;0.55;;;15.00;38.70;14.10;101793.00;;;;5045665;28;20497;-71
2022/04/03 10:41:00;;;;;;;0.52;0.40;;;15.00;38.60;14.10;101787.00;;;;5047281;28;20048;-71
2022/04/03 10:43:46;;;;;;;2.10;0.50;;;15.00;38.70;14.10;101788.00;;;;5060433;28;20049;-72
2022/04/03 10:46:32;;;;;;;0.95;0.63;;;15.00;38.60;14.10;101796.00;;;;5061959;28;20051;-71
2022/04/03 10:49:18;;;;;;;1.02;0.80;;;15.00;38.60;14.10;101781.00;;;;5059877;28;20480;-71
2022/04/03 10:52:09;;;;;;;2.60;0.57;;;15.00;38.50;14.20;101781.00;;;;5059832;28;20045;-71
2022/04/03 10:54:57;;;;;;;2.28;0.60;;;15.00;38.60;14.20;101772.00;;;;5044260;28;20480;-71
2022/04/03 10:57:46;;;;;;;2.28;0.70;;;15.00;38.50;14.20;101774.00;;;;5028962;28;20048;-71
2022/04/03 11:00:37;;;;;;;1.48;0.60;;;15.10;38.60;14.20;101782.00;;;;5047095;28;20201;-71
2022/04/03 11:03:30;;;;;;;1.05;0.50;;;15.10;38.60;14.20;101774.00;;;;5059608;28;20072;-70
2022/04/03 11:06:21;;;;;;;2.58;0.75;;;15.10;38.50;14.20;101772.00;;;;5045537;28;20055;-71
2022/04/03 11:09:28;;;;;;;1.10;0.50;;;15.10;38.60;14.20;101767.00;;;;5082953;28;20055;-70
2022/04/03 11:12:14;;;;;;;1.48;0.50;;;15.20;38.50;14.30;101774.00;;;;5054716;28;20067;-70
2022/04/03 11:15:04;;;;;;;0.88;0.50;;;15.20;38.50;14.30;101760.00;;;;5089655;28;20273;-70
2022/04/03 11:17:53;;;;;;;2.50;0.73;;;15.20;38.50;14.30;101760.00;;;;5054902;28;20043;-70
2022/04/03 11:20:42;;;;;;;2.17;0.70;;;15.20;38.50;14.30;101763.00;;;;5079220;28;20518;-70
2022/04/03 11:23:28;;;;;;;2.25;0.60;;;15.20;38.50;14.30;101749.00;;;;5062690;28;20114;-70
2022/04/03 11:26:15;;;;;;;1.35;0.60;;;15.20;38.40;14.30;101746.00;;;;5064943;28;20563;-70
2022/04/03 11:29:02;;;;;;;0.75;0.40;;;15.20;38.30;14.30;101742.00;;;;5064836;28;20375;-70
2022/04/03 11:31:49;;;;;;;0.70;0.45;;;15.30;38.40;14.30;101737.00;;;;5079532;28;20052;-71
2022/04/03 11:34:35;;;;;;;0.98;0.50;;;15.20;38.30;14.40;101735.00;;;;5062488;28;20461;-72
2022/04/03 11:37:21;;;;;;;1.02;0.50;;;15.30;38.30;14.40;101733.00;;;;5079898;28;20119;-72
2022/04/03 11:40:08;;;;;;;0.75;0.35;;;15.30;38.30;14.40;101743.00;;;;5078023;28;20405;-72
2022/04/03 11:43:15;;;;;;;1.17;0.45;;;15.30;38.30;14.40;101725.00;;;;5061632;28;20105;-72
2022/04/03 11:46:03;;;;;;;1.42;0.43;;;15.30;38.30;14.40;101728.00;;;;5062337;28;20409;-72
2022/04/03 11:48:49;;;;;;;1.00;0.57;;;15.30;38.20;14.40;101729.00;;;;5061176;28;20063;-72
2022/04/03 11:51:35;;;;;;;0.50;0.30;;;15.30;38.10;14.40;101731.00;;;;5082577;28;20047;-72
2022/04/03 11:54:21;;;;;;;0.50;0.35;;;15.30;38.10;14.40;101725.00;;;;5046494;28;20044;-72
2022/04/03 11:57:08;;;;;;;0.40;0.20;;;15.30;38.10;14.40;101722.00;;;;5056655;28;20048;-72
2022/04/03 11:59:57;;;;;;;2.60;0.60;;;15.40;38.10;14.40;101719.00;;;;5064366;28;20409;-72
2022/04/03 12:02:44;;;;;;;2.45;0.80;;;15.30;38.80;14.40;101722.00;;;;5051206;28;20106;-72
2022/04/03 12:05:30;;;;;;;1.77;0.57;;;15.40;38.10;14.40;101724.00;;;;5063728;28;20478;-72
2022/04/03 12:08:16;;;;;;;0.88;0.40;;;15.40;38.10;14.40;101720.00;;;;5050545;28;20212;-72
2022/04/03 12:11:23;;;;;;;1.67;0.47;;;15.30;38.00;14.40;101715.00;;;;5063178;28;20202;-72
2022/04/03 12:14:09;;;;;;;0.85;0.30;;;15.40;38.10;14.40;101706.00;;;;5036307;28;20466;-72